sensor_id;sensor_type;location;lat;lon;timestamp;P1;durP1;ratioP1;P2;durP2;ratioP2
10295;SDS011;5193;51.032;6.356;2024-02-21T00:02:04;18.03;;;7.90;;
10295;SDS011;5193;51.032;6.356;2024-02-21T00:04:30;21.30;;;9.50;;
10295;SDS011;5193;51.032;6.356;2024-02-21T00:06:56;28.13;;;9.63;;
10295;SDS011;5193;51.032;6.356;2024-02-21T00:09:21;20.37;;;7.97;;
10295;SDS011;5193;51.032;6.356;2024-02-21T00:11:50;26.90;;;8.73;;
10295;SDS011;5193;51.032;6.356;2024-02-21T00:14:15;21.53;;;8.90;;
10295;SDS011;5193;51.032;6.356;2024-02-21T00:16:41;23.97;;;9.27;;
10295;SDS011;5193;51.032;6.356;2024-02-21T00:19:07;30.57;;;10.00;;
10295;SDS011;5193;51.032;6.356;2024-02-21T00:21:32;28.57;;;9.17;;
10295;SDS011;5193;51.032;6.356;2024-02-21T00:23:58;20.30;;;8.83;;
10295;SDS011;5193;51.032;6.356;2024-02-21T00:26:23;24.07;;;8.63;;
10295;SDS011;5193;51.032;6.356;2024-02-21T00:28:52;18.73;;;8.67;;
10295;SDS011;5193;51.032;6.356;2024-02-21T00:31:18;25.90;;;9.07;;
10295;SDS011;5193;51.032;6.356;2024-02-21T00:33:43;17.30;;;8.27;;
10295;SDS011;5193;51.032;6.356;2024-02-21T00:36:09;23.17;;;8.40;;
10295;SDS011;5193;51.032;6.356;2024-02-21T00:38:34;25.50;;;8.67;;
10295;SDS011;5193;51.032;6.356;2024-02-21T00:41:00;18.37;;;8.47;;
10295;SDS011;5193;51.032;6.356;2024-02-21T00:43:25;24.17;;;9.17;;
10295;SDS011;5193;51.032;6.356;2024-02-21T00:45:51;23.70;;;8.77;;
10295;SDS011;5193;51.032;6.356;2024-02-21T00:48:17;19.90;;;9.03;;
10295;SDS011;5193;51.032;6.356;2024-02-21T00:50:42;26.43;;;9.20;;
10295;SDS011;5193;51.032;6.356;2024-02-21T00:53:08;24.90;;;8.70;;
10295;SDS011;5193;51.032;6.356;2024-02-21T00:55:34;16.70;;;8.77;;
10295;SDS011;5193;51.032;6.356;2024-02-21T00:58:00;20.70;;;8.37;;
10295;SDS011;5193;51.032;6.356;2024-02-21T01:00:25;16.77;;;8.57;;
10295;SDS011;5193;51.032;6.356;2024-02-21T01:02:51;21.63;;;8.77;;
10295;SDS011;5193;51.032;6.356;2024-02-21T01:05:16;25.90;;;8.47;;
10295;SDS011;5193;51.032;6.356;2024-02-21T01:07:42;22.30;;;8.63;;
10295;SDS011;5193;51.032;6.356;2024-02-21T01:10:10;21.20;;;8.17;;
10295;SDS011;5193;51.032;6.356;2024-02-21T01:12:36;23.13;;;8.97;;
10295;SDS011;5193;51.032;6.356;2024-02-21T01:15:02;22.70;;;8.90;;
10295;SDS011;5193;51.032;6.356;2024-02-21T01:17:28;16.80;;;8.40;;
10295;SDS011;5193;51.032;6.356;2024-02-21T01:19:53;21.13;;;9.33;;
10295;SDS011;5193;51.032;6.356;2024-02-21T01:22:19;22.93;;;8.60;;
10295;SDS011;5193;51.032;6.356;2024-02-21T01:24:45;20.33;;;8.83;;
10295;SDS011;5193;51.032;6.356;2024-02-21T01:27:10;30.60;;;9.03;;
10295;SDS011;5193;51.032;6.356;2024-02-21T01:29:39;25.97;;;9.80;;
10295;SDS011;5193;51.032;6.356;2024-02-21T01:32:06;17.73;;;8.90;;
10295;SDS011;5193;51.032;6.356;2024-02-21T01:34:32;29.03;;;9.17;;
10295;SDS011;5193;51.032;6.356;2024-02-21T01:36:59;22.77;;;8.77;;
10295;SDS011;5193;51.032;6.356;2024-02-21T01:39:31;15.13;;;6.87;;
10295;SDS011;5193;51.032;6.356;2024-02-21T01:41:57;20.27;;;7.77;;
10295;SDS011;5193;51.032;6.356;2024-02-21T01:44:25;14.70;;;8.03;;
10295;SDS011;5193;51.032;6.356;2024-02-21T01:46:52;29.20;;;9.43;;
10295;SDS011;5193;51.032;6.356;2024-02-21T01:49:18;25.83;;;8.97;;
10295;SDS011;5193;51.032;6.356;2024-02-21T01:51:45;26.70;;;9.57;;
10295;SDS011;5193;51.032;6.356;2024-02-21T01:54:11;21.37;;;8.57;;
10295;SDS011;5193;51.032;6.356;2024-02-21T01:56:44;22.83;;;9.00;;
10295;SDS011;5193;51.032;6.356;2024-02-21T01:59:12;18.20;;;8.50;;
10295;SDS011;5193;51.032;6.356;2024-02-21T02:01:40;22.33;;;8.43;;
10295;SDS011;5193;51.032;6.356;2024-02-21T02:04:11;21.97;;;7.87;;
10295;SDS011;5193;51.032;6.356;2024-02-21T02:06:37;20.23;;;8.73;;
10295;SDS011;5193;51.032;6.356;2024-02-21T02:09:02;20.37;;;8.03;;
10295;SDS011;5193;51.032;6.356;2024-02-21T02:11:28;26.30;;;7.90;;
10295;SDS011;5193;51.032;6.356;2024-02-21T02:13:57;18.73;;;8.33;;
10295;SDS011;5193;51.032;6.356;2024-02-21T02:16:22;20.20;;;8.30;;
10295;SDS011;5193;51.032;6.356;2024-02-21T02:18:48;21.33;;;8.57;;
10295;SDS011;5193;51.032;6.356;2024-02-21T02:21:19;25.33;;;8.80;;
10295;SDS011;5193;51.032;6.356;2024-02-21T02:23:52;18.67;;;8.57;;
10295;SDS011;5193;51.032;6.356;2024-02-21T02:26:18;18.53;;;7.97;;
10295;SDS011;5193;51.032;6.356;2024-02-21T02:28:43;22.90;;;8.53;;
10295;SDS011;5193;51.032;6.356;2024-02-21T02:31:10;20.77;;;8.30;;
10295;SDS011;5193;51.032;6.356;2024-02-21T02:33:36;24.57;;;7.80;;
10295;SDS011;5193;51.032;6.356;2024-02-21T02:36:01;19.50;;;8.00;;
10295;SDS011;5193;51.032;6.356;2024-02-21T02:38:27;26.10;;;8.53;;
10295;SDS011;5193;51.032;6.356;2024-02-21T02:40:53;20.33;;;7.87;;
10295;SDS011;5193;51.032;6.356;2024-02-21T02:43:18;19.63;;;7.53;;
10295;SDS011;5193;51.032;6.356;2024-02-21T02:45:44;16.63;;;7.23;;
10295;SDS011;5193;51.032;6.356;2024-02-21T02:48:11;25.43;;;8.80;;
10295;SDS011;5193;51.032;6.356;2024-02-21T02:50:36;20.60;;;8.00;;
10295;SDS011;5193;51.032;6.356;2024-02-21T02:53:02;22.03;;;7.53;;
10295;SDS011;5193;51.032;6.356;2024-02-21T02:55:28;21.53;;;6.33;;
10295;SDS011;5193;51.032;6.356;2024-02-21T02:57:54;20.00;;;7.00;;
10295;SDS011;5193;51.032;6.356;2024-02-21T03:00:20;16.17;;;7.10;;
10295;SDS011;5193;51.032;6.356;2024-02-21T03:02:52;16.57;;;7.10;;
10295;SDS011;5193;51.032;6.356;2024-02-21T03:05:18;18.37;;;7.33;;
10295;SDS011;5193;51.032;6.356;2024-02-21T03:07:45;15.67;;;7.43;;
10295;SDS011;5193;51.032;6.356;2024-02-21T03:10:11;18.90;;;7.40;;
10295;SDS011;5193;51.032;6.356;2024-02-21T03:12:38;21.67;;;8.00;;
10295;SDS011;5193;51.032;6.356;2024-02-21T03:15:06;20.83;;;7.87;;
10295;SDS011;5193;51.032;6.356;2024-02-21T03:17:32;21.00;;;7.40;;
10295;SDS011;5193;51.032;6.356;2024-02-21T03:20:04;20.13;;;7.30;;
10295;SDS011;5193;51.032;6.356;2024-02-21T03:22:31;21.73;;;7.20;;
10295;SDS011;5193;51.032;6.356;2024-02-21T03:24:59;15.63;;;6.80;;
10295;SDS011;5193;51.032;6.356;2024-02-21T03:27:25;17.67;;;7.47;;
10295;SDS011;5193;51.032;6.356;2024-02-21T03:29:52;20.10;;;7.73;;
10295;SDS011;5193;51.032;6.356;2024-02-21T03:32:18;16.50;;;7.47;;
10295;SDS011;5193;51.032;6.356;2024-02-21T03:34:44;20.80;;;7.33;;
10295;SDS011;5193;51.032;6.356;2024-02-21T03:37:10;19.67;;;6.97;;
10295;SDS011;5193;51.032;6.356;2024-02-21T03:39:36;18.60;;;7.90;;
10295;SDS011;5193;51.032;6.356;2024-02-21T03:42:02;18.13;;;6.60;;
10295;SDS011;5193;51.032;6.356;2024-02-21T03:44:30;18.80;;;7.63;;
10295;SDS011;5193;51.032;6.356;2024-02-21T03:46:56;17.40;;;7.00;;
10295;SDS011;5193;51.032;6.356;2024-02-21T03:49:22;16.27;;;7.70;;
10295;SDS011;5193;51.032;6.356;2024-02-21T03:51:48;17.87;;;7.70;;
10295;SDS011;5193;51.032;6.356;2024-02-21T03:54:13;18.17;;;7.67;;
10295;SDS011;5193;51.032;6.356;2024-02-21T03:56:40;16.90;;;7.43;;
10295;SDS011;5193;51.032;6.356;2024-02-21T03:59:12;21.70;;;8.40;;
10295;SDS011;5193;51.032;6.356;2024-02-21T04:01:50;20.03;;;7.27;;
10295;SDS011;5193;51.032;6.356;2024-02-21T04:04:18;20.10;;;7.50;;
10295;SDS011;5193;51.032;6.356;2024-02-21T04:06:49;20.73;;;8.00;;
10295;SDS011;5193;51.032;6.356;2024-02-21T04:09:16;24.80;;;7.60;;
10295;SDS011;5193;51.032;6.356;2024-02-21T04:11:55;16.17;;;7.17;;
10295;SDS011;5193;51.032;6.356;2024-02-21T04:14:22;17.70;;;7.10;;
10295;SDS011;5193;51.032;6.356;2024-02-21T04:16:47;17.63;;;6.77;;
10295;SDS011;5193;51.032;6.356;2024-02-21T04:19:13;17.20;;;6.70;;
10295;SDS011;5193;51.032;6.356;2024-02-21T04:21:38;17.90;;;7.47;;
10295;SDS011;5193;51.032;6.356;2024-02-21T04:24:04;24.63;;;7.07;;
10295;SDS011;5193;51.032;6.356;2024-02-21T04:26:30;20.87;;;7.63;;
10295;SDS011;5193;51.032;6.356;2024-02-21T04:28:56;18.40;;;6.63;;
10295;SDS011;5193;51.032;6.356;2024-02-21T04:31:25;14.57;;;6.83;;
10295;SDS011;5193;51.032;6.356;2024-02-21T04:33:50;19.57;;;7.23;;
10295;SDS011;5193;51.032;6.356;2024-02-21T04:36:17;18.77;;;6.63;;
10295;SDS011;5193;51.032;6.356;2024-02-21T04:38:44;21.27;;;6.93;;
10295;SDS011;5193;51.032;6.356;2024-02-21T04:41:13;19.83;;;6.97;;
10295;SDS011;5193;51.032;6.356;2024-02-21T04:43:46;17.83;;;7.80;;
10295;SDS011;5193;51.032;6.356;2024-02-21T04:46:20;15.00;;;7.10;;
10295;SDS011;5193;51.032;6.356;2024-02-21T04:48:48;19.77;;;7.43;;
10295;SDS011;5193;51.032;6.356;2024-02-21T04:51:13;17.73;;;7.20;;
10295;SDS011;5193;51.032;6.356;2024-02-21T04:53:42;15.07;;;7.17;;
10295;SDS011;5193;51.032;6.356;2024-02-21T04:56:07;18.20;;;6.67;;
10295;SDS011;5193;51.032;6.356;2024-02-21T04:58:37;21.90;;;7.47;;
10295;SDS011;5193;51.032;6.356;2024-02-21T05:01:03;17.63;;;6.87;;
10295;SDS011;5193;51.032;6.356;2024-02-21T05:03:29;15.10;;;6.70;;
10295;SDS011;5193;51.032;6.356;2024-02-21T05:05:58;15.60;;;7.33;;
10295;SDS011;5193;51.032;6.356;2024-02-21T05:08:27;19.30;;;6.90;;
10295;SDS011;5193;51.032;6.356;2024-02-21T05:10:57;15.77;;;6.97;;
10295;SDS011;5193;51.032;6.356;2024-02-21T05:13:22;18.07;;;6.27;;
10295;SDS011;5193;51.032;6.356;2024-02-21T05:15:48;13.97;;;6.67;;
10295;SDS011;5193;51.032;6.356;2024-02-21T05:18:14;17.70;;;6.53;;
10295;SDS011;5193;51.032;6.356;2024-02-21T05:20:39;16.30;;;6.37;;
10295;SDS011;5193;51.032;6.356;2024-02-21T05:23:07;15.03;;;6.73;;
10295;SDS011;5193;51.032;6.356;2024-02-21T05:25:32;19.17;;;6.60;;
10295;SDS011;5193;51.032;6.356;2024-02-21T05:27:58;18.63;;;7.10;;
10295;SDS011;5193;51.032;6.356;2024-02-21T05:30:27;16.27;;;6.50;;
10295;SDS011;5193;51.032;6.356;2024-02-21T05:33:06;15.07;;;5.97;;
10295;SDS011;5193;51.032;6.356;2024-02-21T05:35:32;18.03;;;6.40;;
10295;SDS011;5193;51.032;6.356;2024-02-21T05:37:58;14.40;;;6.33;;
10295;SDS011;5193;51.032;6.356;2024-02-21T05:40:24;13.43;;;6.47;;
10295;SDS011;5193;51.032;6.356;2024-02-21T05:42:50;18.30;;;6.47;;
10295;SDS011;5193;51.032;6.356;2024-02-21T05:45:19;15.27;;;6.40;;
10295;SDS011;5193;51.032;6.356;2024-02-21T05:47:45;13.67;;;5.67;;
10295;SDS011;5193;51.032;6.356;2024-02-21T05:50:11;10.87;;;5.83;;
10295;SDS011;5193;51.032;6.356;2024-02-21T05:52:37;19.63;;;6.30;;
10295;SDS011;5193;51.032;6.356;2024-02-21T05:55:04;15.60;;;6.50;;
10295;SDS011;5193;51.032;6.356;2024-02-21T05:57:32;8.97;;;5.13;;
10295;SDS011;5193;51.032;6.356;2024-02-21T05:59:57;13.40;;;5.63;;
10295;SDS011;5193;51.032;6.356;2024-02-21T06:02:24;9.50;;;5.27;;
10295;SDS011;5193;51.032;6.356;2024-02-21T06:04:51;10.67;;;5.07;;
10295;SDS011;5193;51.032;6.356;2024-02-21T06:07:17;9.40;;;5.10;;
10295;SDS011;5193;51.032;6.356;2024-02-21T06:09:42;9.80;;;5.20;;
10295;SDS011;5193;51.032;6.356;2024-02-21T06:12:09;13.93;;;5.43;;
10295;SDS011;5193;51.032;6.356;2024-02-21T06:14:38;12.93;;;5.10;;
10295;SDS011;5193;51.032;6.356;2024-02-21T06:17:03;10.90;;;4.73;;
10295;SDS011;5193;51.032;6.356;2024-02-21T06:19:29;14.03;;;5.87;;
10295;SDS011;5193;51.032;6.356;2024-02-21T06:21:58;10.90;;;4.63;;
10295;SDS011;5193;51.032;6.356;2024-02-21T06:24:23;9.83;;;4.33;;
10295;SDS011;5193;51.032;6.356;2024-02-21T06:26:52;11.90;;;5.30;;
10295;SDS011;5193;51.032;6.356;2024-02-21T06:29:26;14.07;;;5.37;;
10295;SDS011;5193;51.032;6.356;2024-02-21T06:31:54;9.43;;;3.57;;
10295;SDS011;5193;51.032;6.356;2024-02-21T06:34:22;10.30;;;4.47;;
10295;SDS011;5193;51.032;6.356;2024-02-21T06:36:50;11.63;;;4.97;;
10295;SDS011;5193;51.032;6.356;2024-02-21T06:39:16;10.03;;;3.93;;
10295;SDS011;5193;51.032;6.356;2024-02-21T06:41:42;10.57;;;4.93;;
10295;SDS011;5193;51.032;6.356;2024-02-21T06:44:08;10.80;;;5.23;;
10295;SDS011;5193;51.032;6.356;2024-02-21T06:46:37;14.80;;;5.03;;
10295;SDS011;5193;51.032;6.356;2024-02-21T06:49:07;16.30;;;5.00;;
10295;SDS011;5193;51.032;6.356;2024-02-21T06:51:33;9.80;;;4.43;;
10295;SDS011;5193;51.032;6.356;2024-02-21T06:53:59;14.53;;;5.27;;
10295;SDS011;5193;51.032;6.356;2024-02-21T06:56:25;16.13;;;5.50;;
10295;SDS011;5193;51.032;6.356;2024-02-21T07:02:24;13.17;;;5.80;;
10295;SDS011;5193;51.032;6.356;2024-02-21T07:04:50;16.43;;;5.57;;
10295;SDS011;5193;51.032;6.356;2024-02-21T07:07:17;12.67;;;4.50;;
10295;SDS011;5193;51.032;6.356;2024-02-21T07:09:46;14.50;;;4.63;;
10295;SDS011;5193;51.032;6.356;2024-02-21T07:12:13;8.83;;;3.67;;
10295;SDS011;5193;51.032;6.356;2024-02-21T07:14:42;13.60;;;4.30;;
10295;SDS011;5193;51.032;6.356;2024-02-21T07:17:13;13.10;;;4.50;;
10295;SDS011;5193;51.032;6.356;2024-02-21T07:19:39;8.83;;;4.20;;
10295;SDS011;5193;51.032;6.356;2024-02-21T07:22:04;11.10;;;4.80;;
10295;SDS011;5193;51.032;6.356;2024-02-21T07:24:30;18.00;;;5.30;;
10295;SDS011;5193;51.032;6.356;2024-02-21T07:26:57;10.23;;;4.13;;
10295;SDS011;5193;51.032;6.356;2024-02-21T07:29:29;11.23;;;4.53;;
10295;SDS011;5193;51.032;6.356;2024-02-21T07:31:56;13.90;;;4.20;;
10295;SDS011;5193;51.032;6.356;2024-02-21T07:34:22;10.23;;;4.10;;
10295;SDS011;5193;51.032;6.356;2024-02-21T07:36:50;15.80;;;4.73;;
10295;SDS011;5193;51.032;6.356;2024-02-21T07:39:16;12.57;;;4.40;;
10295;SDS011;5193;51.032;6.356;2024-02-21T07:41:43;10.73;;;4.20;;
10295;SDS011;5193;51.032;6.356;2024-02-21T07:44:11;13.53;;;5.13;;
10295;SDS011;5193;51.032;6.356;2024-02-21T07:46:39;17.30;;;5.83;;
10295;SDS011;5193;51.032;6.356;2024-02-21T07:49:05;14.40;;;5.30;;
10295;SDS011;5193;51.032;6.356;2024-02-21T07:51:31;13.00;;;5.40;;
10295;SDS011;5193;51.032;6.356;2024-02-21T07:53:56;14.10;;;5.20;;
10295;SDS011;5193;51.032;6.356;2024-02-21T07:56:28;9.37;;;4.40;;
10295;SDS011;5193;51.032;6.356;2024-02-21T07:58:54;7.53;;;4.17;;
10295;SDS011;5193;51.032;6.356;2024-02-21T08:01:20;8.37;;;3.80;;
10295;SDS011;5193;51.032;6.356;2024-02-21T08:03:45;14.47;;;4.43;;
10295;SDS011;5193;51.032;6.356;2024-02-21T08:06:13;10.00;;;4.60;;
10295;SDS011;5193;51.032;6.356;2024-02-21T08:08:39;16.00;;;5.20;;
10295;SDS011;5193;51.032;6.356;2024-02-21T08:11:10;11.93;;;4.47;;
10295;SDS011;5193;51.032;6.356;2024-02-21T08:13:39;8.70;;;3.90;;
10295;SDS011;5193;51.032;6.356;2024-02-21T08:16:04;12.87;;;4.00;;
10295;SDS011;5193;51.032;6.356;2024-02-21T08:18:30;11.90;;;4.10;;
10295;SDS011;5193;51.032;6.356;2024-02-21T08:20:56;13.10;;;4.33;;
10295;SDS011;5193;51.032;6.356;2024-02-21T08:23:23;13.67;;;4.60;;
10295;SDS011;5193;51.032;6.356;2024-02-21T08:25:49;10.17;;;4.03;;
10295;SDS011;5193;51.032;6.356;2024-02-21T08:28:15;14.87;;;4.87;;
10295;SDS011;5193;51.032;6.356;2024-02-21T08:30:40;8.47;;;4.23;;
10295;SDS011;5193;51.032;6.356;2024-02-21T08:33:09;7.57;;;3.83;;
10295;SDS011;5193;51.032;6.356;2024-02-21T08:35:39;10.37;;;4.03;;
10295;SDS011;5193;51.032;6.356;2024-02-21T08:38:08;8.93;;;3.80;;
10295;SDS011;5193;51.032;6.356;2024-02-21T08:40:37;12.10;;;4.13;;
10295;SDS011;5193;51.032;6.356;2024-02-21T08:43:02;11.77;;;4.13;;
10295;SDS011;5193;51.032;6.356;2024-02-21T08:45:31;10.67;;;4.20;;
10295;SDS011;5193;51.032;6.356;2024-02-21T08:48:01;10.67;;;4.00;;
10295;SDS011;5193;51.032;6.356;2024-02-21T08:50:27;11.30;;;3.80;;
10295;SDS011;5193;51.032;6.356;2024-02-21T08:52:55;14.63;;;4.50;;
10295;SDS011;5193;51.032;6.356;2024-02-21T08:55:21;10.13;;;3.77;;
10295;SDS011;5193;51.032;6.356;2024-02-21T08:57:47;10.03;;;4.03;;
10295;SDS011;5193;51.032;6.356;2024-02-21T09:00:13;15.07;;;4.23;;
10295;SDS011;5193;51.032;6.356;2024-02-21T09:02:42;12.17;;;4.43;;
10295;SDS011;5193;51.032;6.356;2024-02-21T09:05:08;8.53;;;3.67;;
10295;SDS011;5193;51.032;6.356;2024-02-21T09:07:33;9.70;;;3.97;;
10295;SDS011;5193;51.032;6.356;2024-02-21T09:09:59;9.57;;;3.97;;
10295;SDS011;5193;51.032;6.356;2024-02-21T09:12:25;8.57;;;4.30;;
10295;SDS011;5193;51.032;6.356;2024-02-21T09:14:51;10.37;;;3.83;;
10295;SDS011;5193;51.032;6.356;2024-02-21T09:17:17;9.73;;;3.87;;
10295;SDS011;5193;51.032;6.356;2024-02-21T09:19:43;7.90;;;4.23;;
10295;SDS011;5193;51.032;6.356;2024-02-21T09:22:09;11.70;;;3.90;;
10295;SDS011;5193;51.032;6.356;2024-02-21T09:24:35;12.30;;;3.60;;
10295;SDS011;5193;51.032;6.356;2024-02-21T09:27:03;9.97;;;4.37;;
10295;SDS011;5193;51.032;6.356;2024-02-21T09:29:32;8.13;;;3.63;;
10295;SDS011;5193;51.032;6.356;2024-02-21T09:32:01;11.17;;;3.70;;
10295;SDS011;5193;51.032;6.356;2024-02-21T09:34:35;11.93;;;3.80;;
10295;SDS011;5193;51.032;6.356;2024-02-21T09:37:04;10.50;;;3.43;;
10295;SDS011;5193;51.032;6.356;2024-02-21T09:39:30;10.77;;;4.20;;
10295;SDS011;5193;51.032;6.356;2024-02-21T09:42:02;12.77;;;3.83;;
10295;SDS011;5193;51.032;6.356;2024-02-21T09:44:36;7.93;;;3.70;;
10295;SDS011;5193;51.032;6.356;2024-02-21T09:49:58;8.00;;;3.23;;
10295;SDS011;5193;51.032;6.356;2024-02-21T09:52:29;10.50;;;3.80;;
10295;SDS011;5193;51.032;6.356;2024-02-21T09:54:58;7.00;;;3.00;;
10295;SDS011;5193;51.032;6.356;2024-02-21T09:57:27;8.50;;;3.50;;
10295;SDS011;5193;51.032;6.356;2024-02-21T09:59:53;8.10;;;3.87;;
10295;SDS011;5193;51.032;6.356;2024-02-21T10:02:25;13.00;;;3.77;;
10295;SDS011;5193;51.032;6.356;2024-02-21T10:04:51;7.97;;;3.23;;
10295;SDS011;5193;51.032;6.356;2024-02-21T10:07:16;6.27;;;3.37;;
10295;SDS011;5193;51.032;6.356;2024-02-21T10:09:47;8.23;;;3.27;;
10295;SDS011;5193;51.032;6.356;2024-02-21T10:12:29;9.27;;;3.00;;
10295;SDS011;5193;51.032;6.356;2024-02-21T10:15:00;6.90;;;3.00;;
10295;SDS011;5193;51.032;6.356;2024-02-21T10:17:32;7.53;;;3.33;;
10295;SDS011;5193;51.032;6.356;2024-02-21T10:20:10;11.43;;;3.93;;
10295;SDS011;5193;51.032;6.356;2024-02-21T10:22:37;6.30;;;3.37;;
10295;SDS011;5193;51.032;6.356;2024-02-21T10:25:11;7.37;;;3.10;;
10295;SDS011;5193;51.032;6.356;2024-02-21T10:27:39;8.63;;;3.77;;
10295;SDS011;5193;51.032;6.356;2024-02-21T10:30:06;10.73;;;3.53;;
10295;SDS011;5193;51.032;6.356;2024-02-21T10:32:33;7.83;;;3.47;;
10295;SDS011;5193;51.032;6.356;2024-02-21T10:35:02;9.97;;;3.70;;
10295;SDS011;5193;51.032;6.356;2024-02-21T10:37:30;9.37;;;3.93;;
10295;SDS011;5193;51.032;6.356;2024-02-21T10:39:56;7.67;;;3.47;;
10295;SDS011;5193;51.032;6.356;2024-02-21T10:42:22;9.63;;;3.50;;
10295;SDS011;5193;51.032;6.356;2024-02-21T10:44:50;9.43;;;3.40;;
10295;SDS011;5193;51.032;6.356;2024-02-21T10:47:17;13.77;;;4.30;;
10295;SDS011;5193;51.032;6.356;2024-02-21T10:49:46;11.50;;;3.87;;
10295;SDS011;5193;51.032;6.356;2024-02-21T10:52:24;7.73;;;3.33;;
10295;SDS011;5193;51.032;6.356;2024-02-21T10:55:10;9.20;;;3.13;;
10295;SDS011;5193;51.032;6.356;2024-02-21T10:57:56;9.97;;;3.53;;
10295;SDS011;5193;51.032;6.356;2024-02-21T11:00:23;9.97;;;3.30;;
10295;SDS011;5193;51.032;6.356;2024-02-21T11:02:58;11.10;;;3.67;;
10295;SDS011;5193;51.032;6.356;2024-02-21T11:05:24;11.00;;;3.33;;
10295;SDS011;5193;51.032;6.356;2024-02-21T11:07:54;10.87;;;3.30;;
10295;SDS011;5193;51.032;6.356;2024-02-21T11:10:24;7.63;;;3.27;;
10295;SDS011;5193;51.032;6.356;2024-02-21T11:13:29;8.73;;;3.33;;
10295;SDS011;5193;51.032;6.356;2024-02-21T11:15:43;12.50;;;3.73;;
10295;SDS011;5193;51.032;6.356;2024-02-21T11:18:08;12.40;;;3.43;;
10295;SDS011;5193;51.032;6.356;2024-02-21T11:20:37;9.33;;;3.60;;
10295;SDS011;5193;51.032;6.356;2024-02-21T11:23:03;5.13;;;2.87;;
10295;SDS011;5193;51.032;6.356;2024-02-21T11:25:29;7.43;;;3.53;;
10295;SDS011;5193;51.032;6.356;2024-02-21T11:28:05;10.70;;;3.20;;
10295;SDS011;5193;51.032;6.356;2024-02-21T11:30:35;5.80;;;3.23;;
10295;SDS011;5193;51.032;6.356;2024-02-21T11:33:13;9.20;;;3.83;;
10295;SDS011;5193;51.032;6.356;2024-02-21T11:35:39;9.07;;;3.13;;
10295;SDS011;5193;51.032;6.356;2024-02-21T11:38:09;10.03;;;3.50;;
10295;SDS011;5193;51.032;6.356;2024-02-21T11:40:44;4.90;;;2.40;;
10295;SDS011;5193;51.032;6.356;2024-02-21T11:43:11;9.90;;;3.33;;
10295;SDS011;5193;51.032;6.356;2024-02-21T11:45:37;8.00;;;3.20;;
10295;SDS011;5193;51.032;6.356;2024-02-21T11:48:07;9.43;;;3.47;;
10295;SDS011;5193;51.032;6.356;2024-02-21T11:50:36;6.83;;;2.53;;
10295;SDS011;5193;51.032;6.356;2024-02-21T11:53:02;10.90;;;3.27;;
10295;SDS011;5193;51.032;6.356;2024-02-21T11:55:28;5.70;;;2.70;;
10295;SDS011;5193;51.032;6.356;2024-02-21T11:57:56;13.30;;;3.30;;
10295;SDS011;5193;51.032;6.356;2024-02-21T12:00:25;3.30;;;2.30;;
10295;SDS011;5193;51.032;6.356;2024-02-21T12:02:51;8.57;;;2.70;;
10295;SDS011;5193;51.032;6.356;2024-02-21T12:05:18;9.07;;;2.63;;
10295;SDS011;5193;51.032;6.356;2024-02-21T12:07:45;6.03;;;2.40;;
10295;SDS011;5193;51.032;6.356;2024-02-21T12:10:11;8.60;;;2.87;;
10295;SDS011;5193;51.032;6.356;2024-02-21T12:12:37;10.20;;;3.00;;
10295;SDS011;5193;51.032;6.356;2024-02-21T12:15:07;10.30;;;2.90;;
10295;SDS011;5193;51.032;6.356;2024-02-21T12:17:33;7.30;;;2.17;;
10295;SDS011;5193;51.032;6.356;2024-02-21T12:20:05;6.00;;;2.83;;
10295;SDS011;5193;51.032;6.356;2024-02-21T12:22:41;10.60;;;3.27;;
10295;SDS011;5193;51.032;6.356;2024-02-21T12:25:17;7.67;;;2.67;;
10295;SDS011;5193;51.032;6.356;2024-02-21T12:27:44;9.50;;;3.00;;
10295;SDS011;5193;51.032;6.356;2024-02-21T12:30:14;10.30;;;3.40;;
10295;SDS011;5193;51.032;6.356;2024-02-21T12:32:43;6.97;;;2.73;;
10295;SDS011;5193;51.032;6.356;2024-02-21T12:35:08;9.77;;;3.40;;
10295;SDS011;5193;51.032;6.356;2024-02-21T12:37:37;7.67;;;3.40;;
10295;SDS011;5193;51.032;6.356;2024-02-21T12:40:04;6.07;;;3.23;;
10295;SDS011;5193;51.032;6.356;2024-02-21T12:42:38;9.40;;;3.47;;
10295;SDS011;5193;51.032;6.356;2024-02-21T12:45:08;7.20;;;3.50;;
10295;SDS011;5193;51.032;6.356;2024-02-21T12:47:35;5.57;;;3.33;;
10295;SDS011;5193;51.032;6.356;2024-02-21T12:50:01;7.83;;;2.80;;
10295;SDS011;5193;51.032;6.356;2024-02-21T12:52:33;10.13;;;3.00;;
10295;SDS011;5193;51.032;6.356;2024-02-21T12:54:59;6.23;;;2.87;;
10295;SDS011;5193;51.032;6.356;2024-02-21T12:57:24;9.43;;;2.80;;
10295;SDS011;5193;51.032;6.356;2024-02-21T12:59:50;9.87;;;2.93;;
10295;SDS011;5193;51.032;6.356;2024-02-21T13:02:19;9.37;;;3.40;;
10295;SDS011;5193;51.032;6.356;2024-02-21T13:04:48;8.77;;;2.83;;
10295;SDS011;5193;51.032;6.356;2024-02-21T13:07:14;5.97;;;2.70;;
10295;SDS011;5193;51.032;6.356;2024-02-21T13:09:41;10.30;;;3.23;;
10295;SDS011;5193;51.032;6.356;2024-02-21T13:12:08;6.20;;;2.67;;
10295;SDS011;5193;51.032;6.356;2024-02-21T13:14:35;5.63;;;3.10;;
10295;SDS011;5193;51.032;6.356;2024-02-21T13:17:04;6.43;;;2.90;;
10295;SDS011;5193;51.032;6.356;2024-02-21T13:19:34;11.57;;;3.20;;
10295;SDS011;5193;51.032;6.356;2024-02-21T13:22:00;4.50;;;2.57;;
10295;SDS011;5193;51.032;6.356;2024-02-21T13:24:27;8.27;;;3.10;;
10295;SDS011;5193;51.032;6.356;2024-02-21T13:26:53;6.83;;;3.13;;
10295;SDS011;5193;51.032;6.356;2024-02-21T13:29:18;7.17;;;2.77;;
10295;SDS011;5193;51.032;6.356;2024-02-21T13:31:47;6.83;;;3.03;;
10295;SDS011;5193;51.032;6.356;2024-02-21T13:34:15;8.37;;;3.53;;
10295;SDS011;5193;51.032;6.356;2024-02-21T13:36:42;11.27;;;3.40;;
10295;SDS011;5193;51.032;6.356;2024-02-21T13:39:08;6.03;;;3.00;;
10295;SDS011;5193;51.032;6.356;2024-02-21T13:41:33;7.83;;;2.97;;
10295;SDS011;5193;51.032;6.356;2024-02-21T13:43:59;9.50;;;3.30;;
10295;SDS011;5193;51.032;6.356;2024-02-21T13:46:28;9.03;;;3.67;;
10295;SDS011;5193;51.032;6.356;2024-02-21T13:49:02;5.77;;;3.07;;
10295;SDS011;5193;51.032;6.356;2024-02-21T13:51:33;9.63;;;3.33;;
10295;SDS011;5193;51.032;6.356;2024-02-21T13:54:05;7.47;;;3.27;;
10295;SDS011;5193;51.032;6.356;2024-02-21T13:56:37;6.50;;;3.00;;
10295;SDS011;5193;51.032;6.356;2024-02-21T13:59:05;8.33;;;3.23;;
10295;SDS011;5193;51.032;6.356;2024-02-21T14:01:31;5.47;;;2.63;;
10295;SDS011;5193;51.032;6.356;2024-02-21T14:04:00;5.70;;;2.53;;
10295;SDS011;5193;51.032;6.356;2024-02-21T14:06:26;8.90;;;3.17;;
10295;SDS011;5193;51.032;6.356;2024-02-21T14:08:53;4.90;;;3.00;;
10295;SDS011;5193;51.032;6.356;2024-02-21T14:11:20;4.80;;;2.87;;
10295;SDS011;5193;51.032;6.356;2024-02-21T14:13:48;7.23;;;3.13;;
10295;SDS011;5193;51.032;6.356;2024-02-21T14:16:14;5.20;;;2.53;;
10295;SDS011;5193;51.032;6.356;2024-02-21T14:18:42;7.93;;;2.90;;
10295;SDS011;5193;51.032;6.356;2024-02-21T14:21:08;7.00;;;2.87;;
10295;SDS011;5193;51.032;6.356;2024-02-21T14:23:37;8.80;;;2.80;;
10295;SDS011;5193;51.032;6.356;2024-02-21T14:26:14;6.30;;;2.60;;
10295;SDS011;5193;51.032;6.356;2024-02-21T14:28:40;7.83;;;2.80;;
10295;SDS011;5193;51.032;6.356;2024-02-21T14:31:06;7.00;;;3.07;;
10295;SDS011;5193;51.032;6.356;2024-02-21T14:33:37;6.97;;;2.93;;
10295;SDS011;5193;51.032;6.356;2024-02-21T14:36:03;5.90;;;2.87;;
10295;SDS011;5193;51.032;6.356;2024-02-21T14:38:32;9.17;;;2.93;;
10295;SDS011;5193;51.032;6.356;2024-02-21T14:41:00;4.47;;;2.67;;
10295;SDS011;5193;51.032;6.356;2024-02-21T14:43:29;4.93;;;2.77;;
10295;SDS011;5193;51.032;6.356;2024-02-21T14:45:55;7.00;;;2.87;;
10295;SDS011;5193;51.032;6.356;2024-02-21T14:48:20;4.03;;;2.40;;
10295;SDS011;5193;51.032;6.356;2024-02-21T14:50:51;5.43;;;2.77;;
10295;SDS011;5193;51.032;6.356;2024-02-21T14:53:19;5.47;;;2.30;;
10295;SDS011;5193;51.032;6.356;2024-02-21T14:55:46;6.67;;;2.53;;
10295;SDS011;5193;51.032;6.356;2024-02-21T14:58:11;4.67;;;2.57;;
10295;SDS011;5193;51.032;6.356;2024-02-21T15:00:37;3.93;;;2.00;;
10295;SDS011;5193;51.032;6.356;2024-02-21T15:03:04;6.70;;;2.70;;